Terminal Aerodrome Forecast
Issued by NWS

Home | Current Version | Previous Version | Text Only | Print | Product List | Glossary On
Versions: 1 2 3 4 5 6 7 8 9 10 11 12 13 14 15 16 17 18 19 20 21 22 23 24 25 26 27 28 29 30 31 32 33 34 35 36 37 38 39 40 41 42 43 44 45 46 47 48 49
000
FTAK31 PANC 221733
TAFACD
TAF
PACD 221733Z 2218/2318 24010KT P6SM VCSH FEW015 SCT025 OVC040
      TEMPO 2218/2222 -SHRA SCT015 BKN025
     FM222200 25013KT P6SM -SHRA SCT015 OVC025
     FM230400 24015KT 6SM -SHRA BR SCT008 OVC015
     FM231000 26015KT 3SM -SHRA BR SCT003 OVC080=

USA.gov is the U.S. government's official web portal to all federal, state and local government web resources and services.